TimeEDT,TemperatureF,Dew PointF,Humidity,Sea Level PressureIn,VisibilityMPH,Wind Direction,Wind SpeedMPH,Gust SpeedMPH,PrecipitationIn,Events,Conditions,WindDirDegrees,DateUTC
12:15 AM,30.2,12.2,47,29.81,10.0,WNW,10.4,23.0,N/A,,Clear,290,2013-04-02 04:15:00
12:55 AM,30.2,10.4,44,29.82,10.0,West,8.1,-,N/A,,Clear,280,2013-04-02 04:55:00
1:15 AM,30.2,10.4,44,29.82,10.0,West,9.2,-,N/A,,Clear,270,2013-04-02 05:15:00
1:35 AM,30.2,8.6,40,29.83,10.0,WNW,5.8,-,N/A,,Clear,290,2013-04-02 05:35:00
1:55 AM,30.2,8.6,40,29.83,10.0,West,6.9,-,N/A,,Clear,280,2013-04-02 05:55:00
2:15 AM,30.2,8.6,40,29.82,10.0,West,5.8,-,N/A,,Clear,270,2013-04-02 06:15:00
2:35 AM,28.4,8.6,43,29.82,10.0,West,5.8,-,N/A,,Clear,260,2013-04-02 06:35:00
2:55 AM,28.4,10.4,47,29.81,10.0,West,4.6,-,N/A,,Clear,270,2013-04-02 06:55:00
3:15 AM,28.4,10.4,47,29.82,10.0,West,4.6,16.1,N/A,,Clear,280,2013-04-02 07:15:00
3:35 AM,28.4,8.6,43,29.81,10.0,SW,4.6,-,N/A,,Clear,230,2013-04-02 07:35:00
3:55 AM,28.4,8.6,43,29.81,10.0,WSW,3.5,-,N/A,,Clear,240,2013-04-02 07:55:00
4:15 AM,28.4,8.6,43,29.82,10.0,WSW,3.5,-,N/A,,Clear,250,2013-04-02 08:15:00
4:35 AM,28.4,8.6,43,29.82,10.0,West,3.5,-,N/A,,Clear,260,2013-04-02 08:35:00
4:55 AM,26.6,8.6,47,29.82,10.0,WSW,3.5,-,N/A,,Clear,250,2013-04-02 08:55:00
5:15 AM,26.6,8.6,47,29.83,10.0,WSW,3.5,-,N/A,,Clear,240,2013-04-02 09:15:00
5:35 AM,26.6,8.6,47,29.83,10.0,WSW,3.5,-,N/A,,Clear,240,2013-04-02 09:35:00
5:55 AM,26.6,10.4,51,29.83,10.0,WSW,3.5,-,N/A,,Clear,240,2013-04-02 09:55:00
6:15 AM,24.8,10.4,54,29.84,10.0,SW,3.5,-,N/A,,Clear,230,2013-04-02 10:15:00
6:35 AM,24.8,10.4,54,29.84,10.0,SW,3.5,-,N/A,,Clear,230,2013-04-02 10:35:00
6:55 AM,26.6,10.4,51,29.85,10.0,WSW,3.5,-,N/A,,Clear,240,2013-04-02 10:55:00
7:15 AM,26.6,10.4,51,29.85,10.0,WSW,5.8,-,N/A,,Clear,250,2013-04-02 11:15:00
7:35 AM,26.6,12.2,55,29.86,10.0,WSW,5.8,-,N/A,,Clear,250,2013-04-02 11:35:00
7:55 AM,28.4,10.4,47,29.86,10.0,WSW,8.1,-,N/A,,Clear,250,2013-04-02 11:55:00
8:15 AM,28.4,10.4,47,29.86,10.0,West,10.4,16.1,N/A,,Clear,270,2013-04-02 12:15:00
8:35 AM,30.2,8.6,40,29.86,10.0,West,18.4,26.5,N/A,,Clear,270,2013-04-02 12:35:00
8:55 AM,30.2,8.6,40,29.87,10.0,West,8.1,21.9,N/A,,Partly Cloudy,260,2013-04-02 12:55:00
9:15 AM,30.2,8.6,40,29.87,10.0,WSW,17.3,25.3,N/A,,Mostly Cloudy,250,2013-04-02 13:15:00
9:35 AM,30.2,8.6,40,29.86,10.0,West,19.6,24.2,N/A,,Mostly Cloudy,270,2013-04-02 13:35:00
9:55 AM,30.2,8.6,40,29.87,10.0,West,12.7,23.0,N/A,,Scattered Clouds,280,2013-04-02 13:55:00
10:35 AM,30.2,8.6,40,29.87,10.0,West,18.4,25.3,N/A,,Mostly Cloudy,270,2013-04-02 14:35:00
10:55 AM,30.2,10.4,44,29.87,10.0,West,13.8,24.2,N/A,,Overcast,270,2013-04-02 14:55:00
11:15 AM,32.0,10.4,41,29.86,10.0,West,10.4,21.9,N/A,,Mostly Cloudy,270,2013-04-02 15:15:00
11:35 AM,30.2,10.4,44,29.87,10.0,WSW,15.0,25.3,N/A,,Overcast,250,2013-04-02 15:35:00
11:55 AM,33.8,12.2,41,29.86,10.0,West,16.1,27.6,N/A,,Mostly Cloudy,260,2013-04-02 15:55:00
12:15 PM,32.0,10.4,41,29.85,10.0,West,12.7,25.3,N/A,,Mostly Cloudy,280,2013-04-02 16:15:00
12:35 PM,32.0,8.6,38,29.85,10.0,West,16.1,26.5,N/A,,Overcast,260,2013-04-02 16:35:00
12:55 PM,33.8,8.6,35,29.85,10.0,West,16.1,25.3,N/A,,Overcast,260,2013-04-02 16:55:00
1:15 PM,33.8,8.6,35,29.84,10.0,West,12.7,29.9,N/A,,Overcast,270,2013-04-02 17:15:00
1:35 PM,33.8,8.6,35,29.84,10.0,West,19.6,29.9,N/A,,Overcast,270,2013-04-02 17:35:00
1:55 PM,35.6,8.6,33,29.84,10.0,West,17.3,27.6,N/A,,Mostly Cloudy,260,2013-04-02 17:55:00
2:15 PM,35.6,8.6,33,29.83,10.0,WNW,15.0,25.3,N/A,,Mostly Cloudy,290,2013-04-02 18:15:00
2:35 PM,33.8,8.6,35,29.84,10.0,West,18.4,32.2,N/A,,Mostly Cloudy,270,2013-04-02 18:35:00
2:55 PM,35.6,10.4,35,29.83,10.0,West,16.1,25.3,N/A,,Mostly Cloudy,260,2013-04-02 18:55:00
3:15 PM,33.8,8.6,35,29.83,10.0,WNW,21.9,35.7,N/A,,Mostly Cloudy,290,2013-04-02 19:15:00
3:35 PM,33.8,10.4,38,29.84,10.0,WSW,13.8,33.4,N/A,,Mostly Cloudy,250,2013-04-02 19:35:00
3:55 PM,33.8,8.6,35,29.84,10.0,WNW,17.3,24.2,N/A,,Overcast,300,2013-04-02 19:55:00
4:15 PM,33.8,6.8,32,29.84,10.0,West,20.7,31.1,N/A,,Overcast,270,2013-04-02 20:15:00
4:35 PM,35.6,6.8,30,29.84,10.0,WSW,19.6,31.1,N/A,,Overcast,250,2013-04-02 20:35:00
4:55 PM,33.8,8.6,35,29.85,10.0,West,10.4,19.6,N/A,,Overcast,280,2013-04-02 20:55:00
5:15 PM,33.8,8.6,35,29.86,10.0,West,12.7,28.8,N/A,,Mostly Cloudy,280,2013-04-02 21:15:00
5:35 PM,33.8,8.6,35,29.86,10.0,NW,13.8,23.0,N/A,,Scattered Clouds,320,2013-04-02 21:35:00
5:55 PM,33.8,8.6,35,29.87,10.0,West,9.2,18.4,N/A,,Mostly Cloudy,280,2013-04-02 21:55:00
6:15 PM,33.8,8.6,35,29.88,10.0,WNW,13.8,25.3,N/A,,Mostly Cloudy,300,2013-04-02 22:15:00
6:35 PM,33.8,8.6,35,29.88,10.0,West,13.8,24.2,N/A,,Mostly Cloudy,270,2013-04-02 22:35:00
6:55 PM,33.8,6.8,32,29.89,10.0,West,13.8,24.2,N/A,,Mostly Cloudy,270,2013-04-02 22:55:00
7:15 PM,32.0,8.6,38,29.89,10.0,WSW,11.5,26.5,N/A,,Partly Cloudy,250,2013-04-02 23:15:00
7:35 PM,32.0,8.6,38,29.90,10.0,West,15.0,21.9,N/A,,Partly Cloudy,280,2013-04-02 23:35:00
7:55 PM,32.0,8.6,38,29.90,10.0,West,13.8,21.9,N/A,,Partly Cloudy,270,2013-04-02 23:55:00
8:15 PM,32.0,8.6,38,29.90,10.0,WNW,15.0,20.7,N/A,,Clear,290,2013-04-03 00:15:00
8:35 PM,32.0,10.4,41,29.92,10.0,West,8.1,-,N/A,,Mostly Cloudy,280,2013-04-03 00:35:00
8:55 PM,32.0,8.6,38,29.92,10.0,West,9.2,-,N/A,,Scattered Clouds,260,2013-04-03 00:55:00
9:15 PM,32.0,10.4,41,29.93,10.0,West,6.9,-,N/A,,Scattered Clouds,280,2013-04-03 01:15:00
9:35 PM,30.2,10.4,44,29.92,10.0,WNW,8.1,19.6,N/A,,Scattered Clouds,290,2013-04-03 01:35:00
9:55 PM,30.2,12.2,47,29.92,10.0,West,10.4,19.6,N/A,,Scattered Clouds,280,2013-04-03 01:55:00
10:15 PM,30.2,12.2,47,29.92,10.0,WNW,5.8,16.1,N/A,,Scattered Clouds,290,2013-04-03 02:15:00
10:35 PM,30.2,12.2,47,29.92,10.0,West,11.5,20.7,N/A,,Scattered Clouds,280,2013-04-03 02:35:00
10:55 PM,30.2,12.2,47,29.92,10.0,West,5.8,18.4,N/A,,Scattered Clouds,270,2013-04-03 02:55:00
11:15 PM,30.2,12.2,47,29.92,10.0,WNW,10.4,-,N/A,,Scattered Clouds,290,2013-04-03 03:15:00
11:35 PM,30.2,10.4,44,29.92,10.0,West,6.9,18.4,N/A,,Partly Cloudy,270,2013-04-03 03:35:00
11:55 PM,30.2,12.2,47,29.92,10.0,West,13.8,27.6,N/A,,Scattered Clouds,270,2013-04-03 03:55:00